Flight Track Log - Related Links

Times and Time Zones

All times are in EDT time to prevent confusion due to time zone crossing. See the GJS3657 flight status page for this flight to view local times or setup timezone preferences in your user account.

Time Position Orientation Groundspeed Altitude Reporting Facility
EDT Latitude Longitude Course Direction KTS MPH feet Rate Location/Type
Wed 07:07:29 AM 42.7503 -73.8283 289° West 143 165 1,200  Level Boston Center
Wed 07:08:36 AM 42.7664 -73.8908 289° West 181 208 3,400 2,016 Climbing Boston Center
Wed 07:09:37 AM 42.8050 -73.9514 311° West 236 272 5,500 2,000 Climbing Boston Center
Wed 07:10:03 AM 42.8236 -73.9772 314° West 243 280 6,300 2,721 Climbing Boston Center
Wed 07:11:03 AM 42.8664 -74.0433 311° West 242 278 9,400 3,100 Climbing Boston Center
Wed 07:12:03 AM 42.9236 -74.1214 315° West 247 284 12,500 2,350 Climbing Boston Center
Wed 07:13:03 AM 42.9728 -74.1825 318° Northwest 264 304 14,100 1,700 Climbing Boston Center
Wed 07:14:03 AM 43.0211 -74.2889 302° West 289 333 15,900 1,750 Climbing Boston Center
Wed 07:15:03 AM 43.0294 -74.4056 276° West 318 366 17,600 2,000 Climbing Boston Center
Wed 07:16:03 AM 43.0417 -74.5481 277° West 344 396 19,900 2,000 Climbing Boston Center
Wed 07:17:03 AM 43.0514 -74.6819 276° West 357 411 21,600 1,500 Climbing Boston Center
Wed 07:18:03 AM 43.0633 -74.8189 277° West 362 417 22,900 1,250 Climbing Boston Center
Wed 07:19:03 AM 43.0750 -74.9614 276° West 374 430 24,100 1,100 Climbing Boston Center
Wed 07:20:03 AM 43.0844 -75.0956 276° West 385 443 25,100 1,300 Climbing Boston Center
Wed 07:21:03 AM 43.0953 -75.2439 276° West 390 449 26,700 1,450 Climbing Boston Center
Wed 07:22:03 AM 43.1042 -75.3950 275° West 390 449 28,000 1,250 Climbing Boston Center
Wed 07:23:03 AM 43.1150 -75.5378 276° West 390 449 29,200 1,300 Climbing Boston Center
Wed 07:24:03 AM 43.1253 -75.6861 275° West 390 449 30,600 1,239 Climbing Boston Center
Wed 07:26:07 AM 43.1467 -75.9956 276° West 383 441 33,000 1,174 Climbing Cleveland Center
Wed 07:27:07 AM 43.1564 -76.1400 275° West 383 441 34,200 1,050 Climbing Cleveland Center
Wed 07:28:07 AM 43.1597 -76.2822 272° West 383 441 35,100 750 Climbing Cleveland Center
Wed 07:29:07 AM 43.1608 -76.4275 271° West 383 441 35,700 450 Climbing Cleveland Center
Wed 07:30:07 AM 43.1619 -76.5725 271° West 383 441 36,000 150 Climbing Cleveland Center
Wed 07:31:07 AM 43.1619 -76.6950 270° West 388 447 36,000  Level Cleveland Center
Wed 07:32:07 AM 43.1594 -76.8772 269° West 402 463 36,000  Level Cleveland Center
Wed 07:33:07 AM 43.1581 -77.0311 269° West 407 468 36,000  Level Cleveland Center
Wed 07:34:07 AM 43.1564 -77.1822 269° West 407 468 36,000  Level Cleveland Center
Wed 07:35:07 AM 43.1567 -77.3331 270° West 407 468 36,000  Level Cleveland Center
Wed 07:36:07 AM 43.1547 -77.4897 269° West 407 468 36,000  Level Cleveland Center
Wed 07:37:07 AM 43.1544 -77.6406 270° West 407 468 36,000  Level Cleveland Center
Wed 07:38:07 AM 43.1497 -77.7917 268° West 402 463 36,000  Level Cleveland Center
Wed 07:39:07 AM 43.1492 -77.9425 270° West 402 463 36,000  Level Cleveland Center
Wed 07:40:07 AM 43.1461 -78.0906 268° West 402 463 36,000  Level Cleveland Center
Wed 07:41:07 AM 43.1450 -78.2414 269° West 402 463 36,000  Level Cleveland Center
Wed 07:42:07 AM 43.1417 -78.3894 268° West 402 463 36,000  Level Cleveland Center
Wed 07:43:07 AM 43.1383 -78.5406 268° West 402 463 36,000  Level Cleveland Center
Wed 07:44:07 AM 43.1344 -78.6828 268° West 397 457 36,000  Level Cleveland Center
Wed 07:45:07 AM 43.1325 -78.8308 269° West 392 451 36,000  Level Cleveland Center
Wed 07:46:07 AM 43.1264 -78.9789 267° West 392 451 36,000  Level Cleveland Center
Wed 07:46:25 AM 43.1167 -79.0000 238° Southwest 390 449 36,000 385 Level Toronto Center
Wed 07:47:25 AM 43.1167 -79.1500 270° West 390 449 36,500 667 Climbing Toronto Center
Wed 07:49:25 AM 43.1000 -79.4500 266° West 390 449 38,000 500 Climbing Toronto Center
Wed 07:50:25 AM 43.1000 -79.5833 270° West 390 449 38,000  Level Toronto Center
Wed 07:51:25 AM 43.0833 -79.7500 262° West 400 460 38,000  Level Toronto Center
Wed 07:52:25 AM 43.0833 -79.8833 270° West 400 460 38,000  Level Toronto Center
Wed 07:53:25 AM 43.0833 -80.0500 270° West 400 460 38,000 -200 Level Toronto Center
Wed 07:54:25 AM 43.0667 -80.2000 261° West 400 460 37,600 -600 Descending Toronto Center
Wed 07:55:25 AM 43.0667 -80.3333 270° West 390 449 36,800 -700 Descending Toronto Center
Wed 07:56:25 AM 43.0667 -80.4833 270° West 380 437 36,200 -400 Descending Toronto Center
Wed 07:57:25 AM 43.0500 -80.6333 261° West 380 437 36,000 -100 Descending Toronto Center
Wed 07:58:25 AM 43.0500 -80.7667 270° West 380 437 36,000  Level Toronto Center
Wed 07:59:25 AM 43.0333 -80.9167 261° West 380 437 36,000  Level Toronto Center
Wed 08:00:25 AM 43.0167 -81.0500 260° West 370 426 36,000  Level Toronto Center
Wed 08:01:25 AM 43.0167 -81.1833 270° West 370 426 36,000  Level Toronto Center
Wed 08:02:25 AM 43.0167 -81.3500 270° West 380 437 36,000  Level Toronto Center
Wed 08:03:25 AM 43.0167 -81.4833 270° West 380 437 36,000  Level Toronto Center
Wed 08:04:25 AM 43.0167 -81.6333 270° West 380 437 36,000  Level Toronto Center
Wed 08:05:25 AM 43.0167 -81.7833 270° West 380 437 36,000  Level Toronto Center
Wed 08:06:25 AM 43.0000 -81.9167 260° West 380 437 36,000  Level Toronto Center
Wed 08:07:25 AM 43.0000 -82.0667 270° West 380 437 36,000  Level Toronto Center
Wed 08:08:25 AM 43.0000 -82.2167 270° West 380 437 36,000  Level Toronto Center
Wed 08:09:25 AM 43.0000 -82.3667 270° West 390 449 36,000  Level Toronto Center
Wed 08:10:25 AM 43.0000 -82.5000 270° West 390 449 36,000  Level Toronto Center
Wed 08:11:19 AM 43.0022 -82.6500 271° West 385 443 36,000  Level Cleveland Center
Wed 08:12:19 AM 42.9975 -82.7972 268° West 385 443 36,000  Level Cleveland Center
Wed 08:13:19 AM 42.9944 -82.9447 268° West 385 443 36,000  Level Cleveland Center
Wed 08:14:19 AM 42.9892 -83.0950 267° West 385 443 36,000  Level Cleveland Center
Wed 08:15:19 AM 42.9861 -83.2397 268° West 385 443 36,000  Level Cleveland Center
Wed 08:16:19 AM 42.9803 -83.3900 267° West 385 443 36,000  Level Cleveland Center
Wed 08:17:19 AM 42.9747 -83.5317 267° West 385 443 36,000  Level Cleveland Center
Wed 08:18:19 AM 42.9689 -83.6789 267° West 385 443 36,000  Level Cleveland Center
Wed 08:19:19 AM 42.9608 -83.8175 266° West 380 437 36,000  Level Cleveland Center
Wed 08:20:19 AM 42.9464 -83.9558 262° West 380 437 36,000 -300 Level Cleveland Center
Wed 08:21:19 AM 42.9339 -84.0997 263° West 380 437 35,400 -776 Descending Cleveland Center
Wed 08:22:15 AM 42.9219 -84.2089 262° West 367 422 34,500 -966 Descending Chicago Center
Wed 08:23:17 AM 42.9072 -84.3439 262° West 360 414 33,500 -968 Descending Chicago Center
Wed 08:24:19 AM 42.8953 -84.4847 263° West 371 427 32,500 -732 Descending Chicago Center
Wed 08:25:20 AM 42.8794 -84.6272 261° West 377 434 32,000 -244 Descending Chicago Center
Wed 08:26:22 AM 42.8617 -84.7992 262° West 382 440 32,000 -48 Level Chicago Center
Wed 08:27:24 AM 42.8469 -84.9392 262° West 376 433 31,900 -532 Descending Chicago Center
Wed 08:28:26 AM 42.8319 -85.0789 262° West 374 430 30,900 -1,065 Descending Chicago Center
Wed 08:29:28 AM 42.8167 -85.2258 262° West 385 443 29,700 -1,210 Descending Chicago Center
Wed 08:30:30 AM 42.8014 -85.3717 262° West 389 448 28,400 -1,355 Descending Chicago Center
Wed 08:31:32 AM 42.7844 -85.5156 261° West 386 444 26,900 -1,500 Descending Chicago Center
Wed 08:32:34 AM 42.7569 -85.6675 256° West 409 471 25,300 -1,500 Descending Chicago Center
Wed 08:33:36 AM 42.7297 -85.8161 256° West 406 467 23,800 -1,492 Descending Chicago Center
Wed 08:35:00 AM 42.6929 -86.0020 255° West  Level FlightAware Approximate
Wed 08:35:39 AM 42.6722 -86.1333 255° West 389 448 20,700  Level Chicago Center
Wed 08:36:41 AM 42.6469 -86.2689 256° West 372 428 20,000 -1,016 Descending Chicago Center
Wed 08:37:43 AM 42.6208 -86.3997 255° West 361 415 18,600 -1,500 Descending Chicago Center
Wed 08:38:45 AM 42.5964 -86.5311 256° West 357 411 16,900 -1,548 Descending Chicago Center
Wed 08:39:47 AM 42.5736 -86.6561 256° West 345 397 15,400 -1,452 Descending Chicago Center
Wed 08:40:49 AM 42.5486 -86.7767 254° West 334 384 13,900 -1,597 Descending Chicago Center
Wed 08:41:51 AM 42.5083 -86.9217 249° West 341 392 12,100 -919 Descending Chicago Center
Wed 08:42:53 AM 42.4767 -87.0403 250° West 337 388 12,000 -439 Descending Chicago Center
Wed 08:43:54 AM 42.4442 -87.1478 248° West 311 358 11,200 -1,122 Descending Chicago Center
Wed 08:44:56 AM 42.4194 -87.2400 250° West 266 306 9,700 -1,113 Descending Chicago Center
Wed 08:45:58 AM 42.3903 -87.3292 246° West 258 297 8,900 -1,113 Descending Chicago Center
Wed 08:47:00 AM 42.3553 -87.4244 244° Southwest 253 291 7,400 -968 Descending Chicago Center
Wed 08:48:02 AM 42.3239 -87.5072 243° Southwest 248 285 6,900 -780 Descending Chicago Center
Wed 08:49:03 AM 42.2792 -87.5825 231° Southwest 254 292 5,800 -927 Descending Chicago Center
Wed 08:50:05 AM 42.2306 -87.6400 221° Southwest 232 267 5,000 -387 Descending Chicago Center
Wed 08:51:07 AM 42.1808 -87.6931 218° Southwest 228 262 5,000 -581 Level Chicago Center
Wed 08:52:09 AM 42.1206 -87.7592 219° Southwest 233 268 3,800 -1,065 Descending Chicago Center
Wed 08:53:11 AM 42.0811 -87.8053 221° Southwest 189 217 2,800 -927 Descending Chicago Center
Wed 08:54:12 AM 42.0442 -87.8469 220° Southwest 176 203 1,900 -829 Descending Chicago Center
Wed 08:55:14 AM 42.0133 -87.8808 219° Southwest 161 185 1,100 -774 Descending Chicago Center
Wed 08:57:00 AM 41.9817 -87.9067 217° Southwest  Level Estimated

Login

Don't have an account? Register now (free) for customized features, flight alerts, and more!